sensor_id;sensor_type;location;lat;lon;timestamp;P1;durP1;ratioP1;P2;durP2;ratioP2
17524;SDS011;40431;52.198;9.902;2023-08-31T00:01:28;9.67;;;8.97;;
17524;SDS011;40431;52.198;9.902;2023-08-31T00:03:54;10.80;;;9.57;;
17524;SDS011;40431;52.198;9.902;2023-08-31T00:06:21;10.47;;;9.57;;
17524;SDS011;40431;52.198;9.902;2023-08-31T00:08:47;10.33;;;9.63;;
17524;SDS011;40431;52.198;9.902;2023-08-31T00:11:14;9.33;;;8.63;;
17524;SDS011;40431;52.198;9.902;2023-08-31T00:13:42;8.70;;;7.93;;
17524;SDS011;40431;52.198;9.902;2023-08-31T00:16:09;9.30;;;8.60;;
17524;SDS011;40431;52.198;9.902;2023-08-31T00:18:37;8.70;;;8.10;;
17524;SDS011;40431;52.198;9.902;2023-08-31T00:21:04;9.70;;;9.00;;
17524;SDS011;40431;52.198;9.902;2023-08-31T00:23:31;9.43;;;8.67;;
17524;SDS011;40431;52.198;9.902;2023-08-31T00:25:57;8.70;;;8.10;;
17524;SDS011;40431;52.198;9.902;2023-08-31T00:28:23;8.40;;;7.80;;
17524;SDS011;40431;52.198;9.902;2023-08-31T00:30:52;10.07;;;9.20;;
17524;SDS011;40431;52.198;9.902;2023-08-31T00:33:18;9.70;;;9.00;;
17524;SDS011;40431;52.198;9.902;2023-08-31T00:35:44;10.60;;;9.70;;
17524;SDS011;40431;52.198;9.902;2023-08-31T00:38:12;11.13;;;10.23;;
17524;SDS011;40431;52.198;9.902;2023-08-31T00:40:39;11.00;;;10.10;;
17524;SDS011;40431;52.198;9.902;2023-08-31T00:43:07;11.90;;;11.07;;
17524;SDS011;40431;52.198;9.902;2023-08-31T00:45:34;12.27;;;11.37;;
17524;SDS011;40431;52.198;9.902;2023-08-31T00:48:02;12.43;;;11.53;;
17524;SDS011;40431;52.198;9.902;2023-08-31T00:50:30;13.20;;;12.10;;
17524;SDS011;40431;52.198;9.902;2023-08-31T00:52:56;12.97;;;11.97;;
17524;SDS011;40431;52.198;9.902;2023-08-31T00:55:23;13.30;;;12.03;;
17524;SDS011;40431;52.198;9.902;2023-08-31T00:57:49;12.57;;;11.67;;
17524;SDS011;40431;52.198;9.902;2023-08-31T01:00:15;12.97;;;11.73;;
17524;SDS011;40431;52.198;9.902;2023-08-31T01:02:44;16.23;;;12.83;;
17524;SDS011;40431;52.198;9.902;2023-08-31T01:05:25;13.40;;;12.40;;
17524;SDS011;40431;52.198;9.902;2023-08-31T01:08:02;14.17;;;12.87;;
17524;SDS011;40431;52.198;9.902;2023-08-31T01:10:35;13.67;;;12.43;;
17524;SDS011;40431;52.198;9.902;2023-08-31T01:13:10;14.17;;;13.17;;
17524;SDS011;40431;52.198;9.902;2023-08-31T01:15:41;13.17;;;12.27;;
17524;SDS011;40431;52.198;9.902;2023-08-31T01:18:10;12.80;;;11.77;;
17524;SDS011;40431;52.198;9.902;2023-08-31T01:20:42;13.50;;;12.17;;
17524;SDS011;40431;52.198;9.902;2023-08-31T01:23:18;12.77;;;11.67;;
17524;SDS011;40431;52.198;9.902;2023-08-31T01:25:47;12.33;;;11.30;;
17524;SDS011;40431;52.198;9.902;2023-08-31T01:28:14;12.37;;;11.47;;
17524;SDS011;40431;52.198;9.902;2023-08-31T01:30:40;13.63;;;12.17;;
17524;SDS011;40431;52.198;9.902;2023-08-31T01:33:07;13.00;;;12.03;;
17524;SDS011;40431;52.198;9.902;2023-08-31T01:35:35;12.57;;;11.57;;
17524;SDS011;40431;52.198;9.902;2023-08-31T01:38:07;12.83;;;11.93;;
17524;SDS011;40431;52.198;9.902;2023-08-31T01:40:35;12.67;;;11.77;;
17524;SDS011;40431;52.198;9.902;2023-08-31T01:43:06;12.87;;;11.93;;
17524;SDS011;40431;52.198;9.902;2023-08-31T01:45:35;13.70;;;12.70;;
17524;SDS011;40431;52.198;9.902;2023-08-31T01:48:02;14.33;;;13.13;;
17524;SDS011;40431;52.198;9.902;2023-08-31T01:50:29;13.33;;;12.33;;
17524;SDS011;40431;52.198;9.902;2023-08-31T01:52:56;14.17;;;12.87;;
17524;SDS011;40431;52.198;9.902;2023-08-31T01:55:22;13.60;;;12.53;;
17524;SDS011;40431;52.198;9.902;2023-08-31T01:57:49;13.57;;;12.67;;
17524;SDS011;40431;52.198;9.902;2023-08-31T02:00:18;13.03;;;12.00;;
17524;SDS011;40431;52.198;9.902;2023-08-31T02:02:45;12.33;;;11.23;;
17524;SDS011;40431;52.198;9.902;2023-08-31T02:05:11;14.10;;;12.67;;
17524;SDS011;40431;52.198;9.902;2023-08-31T02:07:38;14.27;;;13.17;;
17524;SDS011;40431;52.198;9.902;2023-08-31T02:10:05;14.37;;;13.07;;
17524;SDS011;40431;52.198;9.902;2023-08-31T02:12:32;14.50;;;13.17;;
17524;SDS011;40431;52.198;9.902;2023-08-31T02:15:01;15.00;;;13.60;;
17524;SDS011;40431;52.198;9.902;2023-08-31T02:17:28;14.93;;;13.70;;
17524;SDS011;40431;52.198;9.902;2023-08-31T02:19:55;15.13;;;13.67;;
17524;SDS011;40431;52.198;9.902;2023-08-31T02:22:23;14.43;;;13.17;;
17524;SDS011;40431;52.198;9.902;2023-08-31T02:24:50;14.67;;;13.17;;
17524;SDS011;40431;52.198;9.902;2023-08-31T02:27:17;14.77;;;13.57;;
17524;SDS011;40431;52.198;9.902;2023-08-31T02:29:43;15.20;;;13.73;;
17524;SDS011;40431;52.198;9.902;2023-08-31T02:32:10;14.20;;;12.73;;
17524;SDS011;40431;52.198;9.902;2023-08-31T02:34:37;13.90;;;12.77;;
17524;SDS011;40431;52.198;9.902;2023-08-31T02:37:04;13.40;;;12.27;;
17524;SDS011;40431;52.198;9.902;2023-08-31T02:39:30;13.33;;;12.03;;
17524;SDS011;40431;52.198;9.902;2023-08-31T02:41:57;14.53;;;13.13;;
17524;SDS011;40431;52.198;9.902;2023-08-31T02:44:23;13.67;;;12.40;;
17524;SDS011;40431;52.198;9.902;2023-08-31T02:46:49;14.67;;;13.40;;
17524;SDS011;40431;52.198;9.902;2023-08-31T02:49:16;13.33;;;12.23;;
17524;SDS011;40431;52.198;9.902;2023-08-31T02:51:44;13.67;;;12.43;;
17524;SDS011;40431;52.198;9.902;2023-08-31T02:54:10;13.50;;;12.20;;
17524;SDS011;40431;52.198;9.902;2023-08-31T02:56:36;13.30;;;12.17;;
17524;SDS011;40431;52.198;9.902;2023-08-31T02:59:03;13.53;;;12.20;;
17524;SDS011;40431;52.198;9.902;2023-08-31T03:01:29;15.60;;;12.87;;
17524;SDS011;40431;52.198;9.902;2023-08-31T03:03:55;13.20;;;12.17;;
17524;SDS011;40431;52.198;9.902;2023-08-31T03:06:22;12.70;;;11.33;;
17524;SDS011;40431;52.198;9.902;2023-08-31T03:08:50;12.07;;;11.00;;
17524;SDS011;40431;52.198;9.902;2023-08-31T03:11:16;11.83;;;10.73;;
17524;SDS011;40431;52.198;9.902;2023-08-31T03:13:42;12.63;;;11.53;;
17524;SDS011;40431;52.198;9.902;2023-08-31T03:16:09;13.13;;;12.13;;
17524;SDS011;40431;52.198;9.902;2023-08-31T03:18:35;11.77;;;10.87;;
17524;SDS011;40431;52.198;9.902;2023-08-31T03:21:02;13.23;;;12.23;;
17524;SDS011;40431;52.198;9.902;2023-08-31T03:23:28;12.60;;;11.50;;
17524;SDS011;40431;52.198;9.902;2023-08-31T03:25:56;11.10;;;10.30;;
17524;SDS011;40431;52.198;9.902;2023-08-31T03:28:23;12.23;;;11.13;;
17524;SDS011;40431;52.198;9.902;2023-08-31T03:30:54;11.67;;;10.67;;
17524;SDS011;40431;52.198;9.902;2023-08-31T03:33:20;12.17;;;11.30;;
17524;SDS011;40431;52.198;9.902;2023-08-31T03:35:47;13.13;;;11.97;;
17524;SDS011;40431;52.198;9.902;2023-08-31T03:38:13;11.70;;;10.63;;
17524;SDS011;40431;52.198;9.902;2023-08-31T03:40:40;12.47;;;11.47;;
17524;SDS011;40431;52.198;9.902;2023-08-31T03:43:08;12.00;;;10.90;;
17524;SDS011;40431;52.198;9.902;2023-08-31T03:45:34;11.50;;;9.27;;
17524;SDS011;40431;52.198;9.902;2023-08-31T03:48:00;10.73;;;9.83;;
17524;SDS011;40431;52.198;9.902;2023-08-31T03:50:27;11.50;;;10.40;;
17524;SDS011;40431;52.198;9.902;2023-08-31T03:52:53;11.00;;;10.10;;
17524;SDS011;40431;52.198;9.902;2023-08-31T03:55:20;10.67;;;9.80;;
17524;SDS011;40431;52.198;9.902;2023-08-31T03:57:46;12.50;;;11.17;;
17524;SDS011;40431;52.198;9.902;2023-08-31T04:00:15;11.57;;;10.57;;
17524;SDS011;40431;52.198;9.902;2023-08-31T04:02:42;12.90;;;11.70;;
17524;SDS011;40431;52.198;9.902;2023-08-31T04:05:09;11.37;;;10.37;;
17524;SDS011;40431;52.198;9.902;2023-08-31T04:07:35;11.53;;;10.43;;
17524;SDS011;40431;52.198;9.902;2023-08-31T04:10:02;11.60;;;10.70;;
17524;SDS011;40431;52.198;9.902;2023-08-31T04:12:29;12.40;;;11.40;;
17524;SDS011;40431;52.198;9.902;2023-08-31T04:14:56;11.70;;;10.90;;
17524;SDS011;40431;52.198;9.902;2023-08-31T04:17:24;12.47;;;11.43;;
17524;SDS011;40431;52.198;9.902;2023-08-31T04:19:51;12.30;;;11.07;;
17524;SDS011;40431;52.198;9.902;2023-08-31T04:22:17;14.17;;;12.90;;
17524;SDS011;40431;52.198;9.902;2023-08-31T04:24:43;12.63;;;11.43;;
17524;SDS011;40431;52.198;9.902;2023-08-31T04:27:10;12.97;;;11.70;;
17524;SDS011;40431;52.198;9.902;2023-08-31T04:29:36;12.80;;;11.63;;
17524;SDS011;40431;52.198;9.902;2023-08-31T04:32:03;11.87;;;10.93;;
17524;SDS011;40431;52.198;9.902;2023-08-31T04:34:31;14.33;;;12.27;;
17524;SDS011;40431;52.198;9.902;2023-08-31T04:36:58;14.00;;;12.70;;
17524;SDS011;40431;52.198;9.902;2023-08-31T04:39:25;12.87;;;11.60;;
17524;SDS011;40431;52.198;9.902;2023-08-31T04:41:51;13.33;;;12.43;;
17524;SDS011;40431;52.198;9.902;2023-08-31T04:44:18;13.10;;;11.67;;
17524;SDS011;40431;52.198;9.902;2023-08-31T04:46:44;13.03;;;11.93;;
17524;SDS011;40431;52.198;9.902;2023-08-31T04:49:11;13.80;;;12.50;;
17524;SDS011;40431;52.198;9.902;2023-08-31T04:51:38;13.50;;;12.30;;
17524;SDS011;40431;52.198;9.902;2023-08-31T04:54:06;13.27;;;12.27;;
17524;SDS011;40431;52.198;9.902;2023-08-31T04:56:33;14.40;;;13.10;;
17524;SDS011;40431;52.198;9.902;2023-08-31T04:59:00;14.93;;;13.77;;
17524;SDS011;40431;52.198;9.902;2023-08-31T05:01:27;15.03;;;13.83;;
17524;SDS011;40431;52.198;9.902;2023-08-31T05:03:54;15.73;;;14.43;;
17524;SDS011;40431;52.198;9.902;2023-08-31T05:06:20;16.10;;;14.50;;
17524;SDS011;40431;52.198;9.902;2023-08-31T05:08:49;18.43;;;16.60;;
17524;SDS011;40431;52.198;9.902;2023-08-31T05:11:15;20.67;;;15.67;;
17524;SDS011;40431;52.198;9.902;2023-08-31T05:13:42;16.70;;;15.30;;
17524;SDS011;40431;52.198;9.902;2023-08-31T05:16:08;17.73;;;15.97;;
17524;SDS011;40431;52.198;9.902;2023-08-31T05:18:35;18.23;;;16.53;;
17524;SDS011;40431;52.198;9.902;2023-08-31T05:21:02;18.53;;;16.93;;
17524;SDS011;40431;52.198;9.902;2023-08-31T05:23:28;17.93;;;16.57;;
17524;SDS011;40431;52.198;9.902;2023-08-31T05:25:56;18.70;;;17.13;;
17524;SDS011;40431;52.198;9.902;2023-08-31T05:28:22;18.37;;;16.80;;
17524;SDS011;40431;52.198;9.902;2023-08-31T05:30:49;17.83;;;16.17;;
17524;SDS011;40431;52.198;9.902;2023-08-31T05:33:16;17.93;;;16.30;;
17524;SDS011;40431;52.198;9.902;2023-08-31T05:35:43;16.93;;;15.53;;
17524;SDS011;40431;52.198;9.902;2023-08-31T05:38:09;17.67;;;16.13;;
17524;SDS011;40431;52.198;9.902;2023-08-31T05:40:36;19.87;;;18.07;;
17524;SDS011;40431;52.198;9.902;2023-08-31T05:43:04;17.97;;;16.43;;
17524;SDS011;40431;52.198;9.902;2023-08-31T05:45:31;18.20;;;16.67;;
17524;SDS011;40431;52.198;9.902;2023-08-31T05:47:58;17.43;;;15.40;;
17524;SDS011;40431;52.198;9.902;2023-08-31T05:50:25;16.97;;;15.67;;
17524;SDS011;40431;52.198;9.902;2023-08-31T05:52:51;17.50;;;16.00;;
17524;SDS011;40431;52.198;9.902;2023-08-31T05:55:18;16.17;;;15.03;;
17524;SDS011;40431;52.198;9.902;2023-08-31T05:57:44;16.70;;;15.23;;
17524;SDS011;40431;52.198;9.902;2023-08-31T06:00:12;16.23;;;14.90;;
17524;SDS011;40431;52.198;9.902;2023-08-31T06:02:39;17.23;;;15.93;;
17524;SDS011;40431;52.198;9.902;2023-08-31T06:05:06;17.23;;;15.93;;
17524;SDS011;40431;52.198;9.902;2023-08-31T06:07:33;15.47;;;14.27;;
17524;SDS011;40431;52.198;9.902;2023-08-31T06:09:59;16.70;;;15.40;;
17524;SDS011;40431;52.198;9.902;2023-08-31T06:12:26;15.97;;;14.67;;
17524;SDS011;40431;52.198;9.902;2023-08-31T06:14:52;15.03;;;13.63;;
17524;SDS011;40431;52.198;9.902;2023-08-31T06:17:20;15.77;;;14.47;;
17524;SDS011;40431;52.198;9.902;2023-08-31T06:19:47;17.37;;;15.93;;
17524;SDS011;40431;52.198;9.902;2023-08-31T06:22:13;16.30;;;15.20;;
17524;SDS011;40431;52.198;9.902;2023-08-31T06:24:39;16.43;;;15.23;;
17524;SDS011;40431;52.198;9.902;2023-08-31T06:27:07;16.90;;;15.47;;
17524;SDS011;40431;52.198;9.902;2023-08-31T06:29:33;16.40;;;15.17;;
17524;SDS011;40431;52.198;9.902;2023-08-31T06:32:00;16.00;;;14.90;;
17524;SDS011;40431;52.198;9.902;2023-08-31T06:34:28;15.20;;;14.10;;
17524;SDS011;40431;52.198;9.902;2023-08-31T06:36:56;15.07;;;13.77;;
17524;SDS011;40431;52.198;9.902;2023-08-31T06:39:23;15.27;;;14.17;;
17524;SDS011;40431;52.198;9.902;2023-08-31T06:41:49;14.07;;;13.00;;
17524;SDS011;40431;52.198;9.902;2023-08-31T06:44:16;15.90;;;14.30;;
17524;SDS011;40431;52.198;9.902;2023-08-31T06:46:42;15.53;;;14.30;;
17524;SDS011;40431;52.198;9.902;2023-08-31T06:49:09;13.77;;;12.73;;
17524;SDS011;40431;52.198;9.902;2023-08-31T06:51:37;15.33;;;14.13;;
17524;SDS011;40431;52.198;9.902;2023-08-31T06:54:03;13.70;;;12.57;;
17524;SDS011;40431;52.198;9.902;2023-08-31T06:56:31;12.70;;;11.80;;
17524;SDS011;40431;52.198;9.902;2023-08-31T06:58:58;12.00;;;10.80;;
17524;SDS011;40431;52.198;9.902;2023-08-31T07:01:24;10.00;;;9.30;;
17524;SDS011;40431;52.198;9.902;2023-08-31T07:03:52;9.77;;;8.97;;
17524;SDS011;40431;52.198;9.902;2023-08-31T07:06:18;10.40;;;9.40;;
17524;SDS011;40431;52.198;9.902;2023-08-31T07:08:46;9.83;;;8.97;;
17524;SDS011;40431;52.198;9.902;2023-08-31T07:11:12;8.53;;;7.97;;
17524;SDS011;40431;52.198;9.902;2023-08-31T07:13:39;7.40;;;6.80;;
17524;SDS011;40431;52.198;9.902;2023-08-31T07:16:05;8.37;;;7.80;;
17524;SDS011;40431;52.198;9.902;2023-08-31T07:18:32;8.00;;;7.40;;
17524;SDS011;40431;52.198;9.902;2023-08-31T07:20:58;7.60;;;7.03;;
17524;SDS011;40431;52.198;9.902;2023-08-31T07:23:25;7.80;;;7.20;;
17524;SDS011;40431;52.198;9.902;2023-08-31T07:25:52;8.30;;;7.70;;
17524;SDS011;40431;52.198;9.902;2023-08-31T07:28:22;7.07;;;6.57;;
17524;SDS011;40431;52.198;9.902;2023-08-31T07:30:49;8.20;;;7.70;;
17524;SDS011;40431;52.198;9.902;2023-08-31T07:33:15;7.23;;;6.73;;
17524;SDS011;40431;52.198;9.902;2023-08-31T07:35:42;7.43;;;6.70;;
17524;SDS011;40431;52.198;9.902;2023-08-31T07:38:08;7.60;;;7.00;;
17524;SDS011;40431;52.198;9.902;2023-08-31T07:40:34;7.30;;;6.80;;
17524;SDS011;40431;52.198;9.902;2023-08-31T07:43:02;7.83;;;7.23;;
17524;SDS011;40431;52.198;9.902;2023-08-31T07:45:29;7.63;;;7.13;;
17524;SDS011;40431;52.198;9.902;2023-08-31T07:47:55;8.07;;;7.23;;
17524;SDS011;40431;52.198;9.902;2023-08-31T07:50:22;7.60;;;6.90;;
17524;SDS011;40431;52.198;9.902;2023-08-31T07:52:48;7.43;;;6.83;;
17524;SDS011;40431;52.198;9.902;2023-08-31T07:55:15;7.00;;;6.50;;
17524;SDS011;40431;52.198;9.902;2023-08-31T07:57:41;7.50;;;6.90;;
17524;SDS011;40431;52.198;9.902;2023-08-31T08:00:10;7.53;;;6.73;;
17524;SDS011;40431;52.198;9.902;2023-08-31T08:02:36;7.30;;;5.80;;
17524;SDS011;40431;52.198;9.902;2023-08-31T08:05:03;6.33;;;5.93;;
17524;SDS011;40431;52.198;9.902;2023-08-31T08:07:30;6.60;;;6.10;;
17524;SDS011;40431;52.198;9.902;2023-08-31T08:09:57;6.83;;;6.33;;
17524;SDS011;40431;52.198;9.902;2023-08-31T08:12:24;7.30;;;6.60;;
17524;SDS011;40431;52.198;9.902;2023-08-31T08:14:50;6.40;;;5.80;;
17524;SDS011;40431;52.198;9.902;2023-08-31T08:17:18;5.60;;;5.20;;
17524;SDS011;40431;52.198;9.902;2023-08-31T08:19:45;5.30;;;4.90;;
17524;SDS011;40431;52.198;9.902;2023-08-31T08:22:11;4.93;;;4.27;;
17524;SDS011;40431;52.198;9.902;2023-08-31T08:24:37;4.73;;;4.43;;
17524;SDS011;40431;52.198;9.902;2023-08-31T08:27:04;4.50;;;4.20;;
17524;SDS011;40431;52.198;9.902;2023-08-31T08:29:30;4.87;;;4.47;;
17524;SDS011;40431;52.198;9.902;2023-08-31T08:31:57;5.57;;;5.10;;
17524;SDS011;40431;52.198;9.902;2023-08-31T08:34:25;5.23;;;4.83;;
17524;SDS011;40431;52.198;9.902;2023-08-31T08:36:52;5.40;;;4.90;;
17524;SDS011;40431;52.198;9.902;2023-08-31T08:39:18;5.13;;;4.73;;
17524;SDS011;40431;52.198;9.902;2023-08-31T08:41:45;5.83;;;5.33;;
17524;SDS011;40431;52.198;9.902;2023-08-31T08:44:12;5.67;;;5.23;;
17524;SDS011;40431;52.198;9.902;2023-08-31T08:46:42;5.40;;;5.00;;
17524;SDS011;40431;52.198;9.902;2023-08-31T08:49:10;5.23;;;4.83;;
17524;SDS011;40431;52.198;9.902;2023-08-31T08:51:38;5.57;;;4.97;;
17524;SDS011;40431;52.198;9.902;2023-08-31T08:54:04;4.40;;;4.10;;
17524;SDS011;40431;52.198;9.902;2023-08-31T08:56:31;4.60;;;4.20;;
17524;SDS011;40431;52.198;9.902;2023-08-31T08:58:58;4.33;;;4.03;;
17524;SDS011;40431;52.198;9.902;2023-08-31T09:01:25;4.47;;;4.17;;
17524;SDS011;40431;52.198;9.902;2023-08-31T09:03:51;5.40;;;5.00;;
17524;SDS011;40431;52.198;9.902;2023-08-31T09:06:19;4.37;;;3.97;;
17524;SDS011;40431;52.198;9.902;2023-08-31T09:08:52;4.17;;;3.77;;
17524;SDS011;40431;52.198;9.902;2023-08-31T09:11:20;4.20;;;3.90;;
17524;SDS011;40431;52.198;9.902;2023-08-31T09:13:47;3.70;;;3.40;;
17524;SDS011;40431;52.198;9.902;2023-08-31T09:16:22;3.77;;;3.47;;
17524;SDS011;40431;52.198;9.902;2023-08-31T09:18:50;3.43;;;3.13;;
17524;SDS011;40431;52.198;9.902;2023-08-31T09:21:17;6.63;;;3.93;;
17524;SDS011;40431;52.198;9.902;2023-08-31T09:23:45;3.30;;;3.10;;
17524;SDS011;40431;52.198;9.902;2023-08-31T09:26:21;5.70;;;3.30;;
17524;SDS011;40431;52.198;9.902;2023-08-31T09:28:47;3.53;;;3.23;;
17524;SDS011;40431;52.198;9.902;2023-08-31T09:31:15;3.47;;;3.13;;
17524;SDS011;40431;52.198;9.902;2023-08-31T09:33:49;4.73;;;3.63;;
17524;SDS011;40431;52.198;9.902;2023-08-31T09:36:16;3.53;;;3.23;;
17524;SDS011;40431;52.198;9.902;2023-08-31T09:38:43;3.40;;;3.10;;
17524;SDS011;40431;52.198;9.902;2023-08-31T09:41:11;3.53;;;3.00;;
17524;SDS011;40431;52.198;9.902;2023-08-31T09:43:38;3.43;;;3.10;;
17524;SDS011;40431;52.198;9.902;2023-08-31T09:46:04;3.77;;;3.47;;
17524;SDS011;40431;52.198;9.902;2023-08-31T09:48:31;3.23;;;3.00;;
17524;SDS011;40431;52.198;9.902;2023-08-31T09:50:58;4.60;;;3.17;;
17524;SDS011;40431;52.198;9.902;2023-08-31T09:53:29;3.40;;;3.10;;
17524;SDS011;40431;52.198;9.902;2023-08-31T09:55:57;3.63;;;3.33;;
17524;SDS011;40431;52.198;9.902;2023-08-31T09:58:25;3.53;;;3.13;;
17524;SDS011;40431;52.198;9.902;2023-08-31T10:00:53;2.97;;;2.73;;
17524;SDS011;40431;52.198;9.902;2023-08-31T10:03:20;2.50;;;2.30;;
17524;SDS011;40431;52.198;9.902;2023-08-31T10:05:47;2.90;;;2.70;;
17524;SDS011;40431;52.198;9.902;2023-08-31T10:08:14;2.87;;;2.67;;
17524;SDS011;40431;52.198;9.902;2023-08-31T10:10:42;3.40;;;3.10;;
17524;SDS011;40431;52.198;9.902;2023-08-31T10:13:08;2.93;;;2.73;;
17524;SDS011;40431;52.198;9.902;2023-08-31T10:15:37;2.40;;;2.20;;
17524;SDS011;40431;52.198;9.902;2023-08-31T10:18:05;4.00;;;2.77;;
17524;SDS011;40431;52.198;9.902;2023-08-31T10:20:32;4.63;;;2.90;;
17524;SDS011;40431;52.198;9.902;2023-08-31T10:22:59;3.63;;;2.53;;
17524;SDS011;40431;52.198;9.902;2023-08-31T10:25:37;2.80;;;2.43;;
17524;SDS011;40431;52.198;9.902;2023-08-31T10:28:28;2.33;;;2.13;;
17524;SDS011;40431;52.198;9.902;2023-08-31T10:31:03;2.50;;;2.30;;
17524;SDS011;40431;52.198;9.902;2023-08-31T10:33:31;2.33;;;2.20;;
17524;SDS011;40431;52.198;9.902;2023-08-31T10:35:58;3.30;;;2.47;;
17524;SDS011;40431;52.198;9.902;2023-08-31T10:38:25;2.53;;;2.33;;
17524;SDS011;40431;52.198;9.902;2023-08-31T10:43:48;2.80;;;2.67;;
17524;SDS011;40431;52.198;9.902;2023-08-31T10:46:25;3.67;;;3.37;;
17524;SDS011;40431;52.198;9.902;2023-08-31T10:48:53;3.63;;;3.33;;
17524;SDS011;40431;52.198;9.902;2023-08-31T10:51:21;3.33;;;2.80;;
17524;SDS011;40431;52.198;9.902;2023-08-31T10:53:52;3.47;;;2.50;;
17524;SDS011;40431;52.198;9.902;2023-08-31T10:56:18;3.67;;;3.00;;
17524;SDS011;40431;52.198;9.902;2023-08-31T10:58:57;2.90;;;2.60;;
17524;SDS011;40431;52.198;9.902;2023-08-31T11:04:21;2.87;;;2.67;;
17524;SDS011;40431;52.198;9.902;2023-08-31T11:06:49;2.73;;;2.53;;
17524;SDS011;40431;52.198;9.902;2023-08-31T11:09:19;4.13;;;2.80;;
17524;SDS011;40431;52.198;9.902;2023-08-31T11:11:47;2.60;;;2.40;;
17524;SDS011;40431;52.198;9.902;2023-08-31T11:14:14;3.87;;;3.57;;
17524;SDS011;40431;52.198;9.902;2023-08-31T11:16:41;3.57;;;3.27;;
17524;SDS011;40431;52.198;9.902;2023-08-31T11:19:10;6.80;;;3.30;;
17524;SDS011;40431;52.198;9.902;2023-08-31T11:21:36;6.17;;;3.10;;
17524;SDS011;40431;52.198;9.902;2023-08-31T11:24:04;3.10;;;2.83;;
17524;SDS011;40431;52.198;9.902;2023-08-31T11:26:31;3.07;;;2.80;;
17524;SDS011;40431;52.198;9.902;2023-08-31T11:28:58;4.10;;;3.80;;
17524;SDS011;40431;52.198;9.902;2023-08-31T11:31:24;4.43;;;4.03;;
17524;SDS011;40431;52.198;9.902;2023-08-31T11:33:51;3.30;;;3.00;;
17524;SDS011;40431;52.198;9.902;2023-08-31T11:36:20;3.53;;;3.23;;
17524;SDS011;40431;52.198;9.902;2023-08-31T11:38:47;3.80;;;3.60;;
17524;SDS011;40431;52.198;9.902;2023-08-31T11:41:14;3.73;;;3.43;;
17524;SDS011;40431;52.198;9.902;2023-08-31T11:43:40;3.97;;;3.47;;
17524;SDS011;40431;52.198;9.902;2023-08-31T11:46:07;4.40;;;3.83;;
17524;SDS011;40431;52.198;9.902;2023-08-31T11:48:35;3.30;;;3.10;;
17524;SDS011;40431;52.198;9.902;2023-08-31T11:51:01;3.57;;;3.30;;
17524;SDS011;40431;52.198;9.902;2023-08-31T11:53:29;3.70;;;3.40;;
17524;SDS011;40431;52.198;9.902;2023-08-31T11:55:56;3.60;;;3.30;;
17524;SDS011;40431;52.198;9.902;2023-08-31T11:58:22;2.77;;;2.57;;
17524;SDS011;40431;52.198;9.902;2023-08-31T12:00:56;3.20;;;3.00;;
17524;SDS011;40431;52.198;9.902;2023-08-31T12:03:24;3.27;;;2.90;;
17524;SDS011;40431;52.198;9.902;2023-08-31T12:05:51;2.73;;;2.50;;
17524;SDS011;40431;52.198;9.902;2023-08-31T12:08:23;2.57;;;2.37;;
17524;SDS011;40431;52.198;9.902;2023-08-31T12:10:52;2.77;;;2.57;;
17524;SDS011;40431;52.198;9.902;2023-08-31T12:13:19;2.67;;;2.47;;
17524;SDS011;40431;52.198;9.902;2023-08-31T12:15:47;2.53;;;2.33;;
17524;SDS011;40431;52.198;9.902;2023-08-31T12:18:14;3.07;;;2.40;;
17524;SDS011;40431;52.198;9.902;2023-08-31T12:20:44;1.80;;;1.70;;
17524;SDS011;40431;52.198;9.902;2023-08-31T12:23:10;2.20;;;2.00;;
17524;SDS011;40431;52.198;9.902;2023-08-31T12:25:39;2.07;;;1.87;;
17524;SDS011;40431;52.198;9.902;2023-08-31T12:28:12;2.17;;;1.97;;
17524;SDS011;40431;52.198;9.902;2023-08-31T12:30:41;2.03;;;1.93;;
17524;SDS011;40431;52.198;9.902;2023-08-31T12:33:09;2.00;;;1.90;;
17524;SDS011;40431;52.198;9.902;2023-08-31T12:35:35;2.87;;;2.10;;
17524;SDS011;40431;52.198;9.902;2023-08-31T12:38:01;1.43;;;1.43;;
17524;SDS011;40431;52.198;9.902;2023-08-31T12:40:29;1.73;;;1.47;;
17524;SDS011;40431;52.198;9.902;2023-08-31T12:42:55;2.53;;;1.27;;
17524;SDS011;40431;52.198;9.902;2023-08-31T12:45:23;2.00;;;1.20;;
17524;SDS011;40431;52.198;9.902;2023-08-31T12:47:49;1.10;;;0.97;;
17524;SDS011;40431;52.198;9.902;2023-08-31T12:50:16;1.27;;;0.90;;
17524;SDS011;40431;52.198;9.902;2023-08-31T12:52:43;1.27;;;1.00;;
17524;SDS011;40431;52.198;9.902;2023-08-31T12:55:11;1.60;;;1.50;;
17524;SDS011;40431;52.198;9.902;2023-08-31T12:57:37;1.30;;;1.00;;
17524;SDS011;40431;52.198;9.902;2023-08-31T13:00:04;1.10;;;1.00;;
17524;SDS011;40431;52.198;9.902;2023-08-31T13:02:35;1.37;;;1.10;;
17524;SDS011;40431;52.198;9.902;2023-08-31T13:05:01;2.13;;;1.20;;
17524;SDS011;40431;52.198;9.902;2023-08-31T13:07:30;1.50;;;1.13;;
17524;SDS011;40431;52.198;9.902;2023-08-31T13:09:56;1.03;;;1.00;;
17524;SDS011;40431;52.198;9.902;2023-08-31T13:12:23;1.67;;;1.03;;
17524;SDS011;40431;52.198;9.902;2023-08-31T13:14:50;2.13;;;1.30;;
17524;SDS011;40431;52.198;9.902;2023-08-31T13:17:16;1.13;;;1.10;;
17524;SDS011;40431;52.198;9.902;2023-08-31T13:19:44;1.63;;;1.20;;
17524;SDS011;40431;52.198;9.902;2023-08-31T13:22:10;2.80;;;1.47;;
17524;SDS011;40431;52.198;9.902;2023-08-31T13:24:40;1.40;;;1.30;;
17524;SDS011;40431;52.198;9.902;2023-08-31T13:27:06;2.33;;;1.50;;
17524;SDS011;40431;52.198;9.902;2023-08-31T13:29:33;1.90;;;1.10;;
17524;SDS011;40431;52.198;9.902;2023-08-31T13:31:59;1.50;;;1.40;;
17524;SDS011;40431;52.198;9.902;2023-08-31T13:34:25;1.97;;;1.87;;
17524;SDS011;40431;52.198;9.902;2023-08-31T13:36:53;1.63;;;1.30;;
17524;SDS011;40431;52.198;9.902;2023-08-31T13:39:21;2.03;;;1.27;;
17524;SDS011;40431;52.198;9.902;2023-08-31T13:41:48;3.17;;;2.00;;
17524;SDS011;40431;52.198;9.902;2023-08-31T13:44:15;2.73;;;1.70;;
17524;SDS011;40431;52.198;9.902;2023-08-31T13:46:42;2.40;;;1.60;;
17524;SDS011;40431;52.198;9.902;2023-08-31T13:49:08;1.53;;;1.23;;
17524;SDS011;40431;52.198;9.902;2023-08-31T13:51:35;2.17;;;1.40;;
17524;SDS011;40431;52.198;9.902;2023-08-31T13:54:02;2.00;;;1.40;;
17524;SDS011;40431;52.198;9.902;2023-08-31T13:56:29;1.90;;;1.10;;
17524;SDS011;40431;52.198;9.902;2023-08-31T13:58:55;1.83;;;1.13;;
17524;SDS011;40431;52.198;9.902;2023-08-31T14:01:23;1.70;;;1.23;;
17524;SDS011;40431;52.198;9.902;2023-08-31T14:03:49;1.00;;;0.90;;
17524;SDS011;40431;52.198;9.902;2023-08-31T14:06:15;0.83;;;0.80;;
17524;SDS011;40431;52.198;9.902;2023-08-31T14:08:42;0.83;;;0.83;;
17524;SDS011;40431;52.198;9.902;2023-08-31T14:11:09;1.67;;;1.00;;
17524;SDS011;40431;52.198;9.902;2023-08-31T14:13:36;1.10;;;0.93;;
17524;SDS011;40431;52.198;9.902;2023-08-31T14:16:03;1.30;;;1.00;;
17524;SDS011;40431;52.198;9.902;2023-08-31T14:18:29;1.10;;;1.10;;
17524;SDS011;40431;52.198;9.902;2023-08-31T14:20:57;2.30;;;1.10;;
17524;SDS011;40431;52.198;9.902;2023-08-31T14:23:25;1.33;;;1.00;;
17524;SDS011;40431;52.198;9.902;2023-08-31T14:25:51;1.37;;;1.00;;
17524;SDS011;40431;52.198;9.902;2023-08-31T14:28:19;1.00;;;0.90;;
17524;SDS011;40431;52.198;9.902;2023-08-31T14:30:46;5.80;;;1.10;;
17524;SDS011;40431;52.198;9.902;2023-08-31T14:33:12;2.30;;;0.90;;
17524;SDS011;40431;52.198;9.902;2023-08-31T14:35:39;2.20;;;1.00;;
17524;SDS011;40431;52.198;9.902;2023-08-31T14:38:05;2.17;;;1.53;;
17524;SDS011;40431;52.198;9.902;2023-08-31T14:40:32;0.97;;;0.90;;
17524;SDS011;40431;52.198;9.902;2023-08-31T14:42:59;2.43;;;1.30;;